createdAt,value
2018-11-23T00:00:06.491Z,77.23
2018-11-23T00:01:06.487Z,77.33
2018-11-23T00:02:05.063Z,77.70
2018-11-23T00:03:06.974Z,78.27
2018-11-23T00:04:07.453Z,78.08
2018-11-23T00:05:07.469Z,78.46
2018-11-23T00:06:28.473Z,78.37
2018-11-23T00:07:05.908Z,78.27
2018-11-23T00:08:07.965Z,77.99
2018-11-23T00:09:09.981Z,77.70
2018-11-23T00:10:08.434Z,77.61
2018-11-23T00:11:08.471Z,76.95
2018-11-23T00:12:23.479Z,77.04
2018-11-23T00:13:08.478Z,77.23
2018-11-23T00:14:07.937Z,77.42
2018-11-23T00:15:07.973Z,77.04
2018-11-23T00:16:09.931Z,76.29
2018-11-23T00:17:14.968Z,76.00
2018-11-23T00:18:08.027Z,75.68
2018-11-23T00:19:08.425Z,75.12
2018-11-23T00:20:11.469Z,75.68
2018-11-23T00:21:08.960Z,75.78
2018-11-23T00:22:10.976Z,75.21
2018-11-23T00:23:09.937Z,74.49
2018-11-23T00:24:08.402Z,74.40
2018-11-23T00:25:08.598Z,74.55
2018-11-23T00:26:10.502Z,74.55
2018-11-23T00:27:08.969Z,74.26
2018-11-23T00:29:43.305Z,73.22
2018-11-23T00:30:43.805Z,73.50
2018-11-23T00:31:43.816Z,72.56
2018-11-23T00:32:44.754Z,72.75
2018-11-23T00:33:46.428Z,72.56
2018-11-23T00:34:44.285Z,72.41
2018-11-23T00:35:45.622Z,72.12
2018-11-23T00:36:45.856Z,72.12
2018-11-23T00:37:44.802Z,71.84
2018-11-23T00:38:44.817Z,72.09
2018-11-23T00:39:44.295Z,71.65
2018-11-23T00:40:47.344Z,71.84
2018-11-23T00:41:43.638Z,71.65
2018-11-23T00:43:00.933Z,71.36
2018-11-23T00:43:45.802Z,71.36
2018-11-23T00:44:46.197Z,71.55
2018-11-23T00:45:51.277Z,71.36
2018-11-23T00:46:48.333Z,71.71
2018-11-23T00:47:46.728Z,70.95
2018-11-23T00:48:47.766Z,71.17
2018-11-23T00:50:09.298Z,70.79
2018-11-23T00:50:52.761Z,70.86
2018-11-23T00:51:47.807Z,70.48
2018-11-23T00:52:48.310Z,70.67
2018-11-23T00:53:47.897Z,69.82
2018-11-23T00:54:46.675Z,70.01
2018-11-23T00:55:47.862Z,70.01
2018-11-23T00:56:48.759Z,69.34
2018-11-23T00:57:47.372Z,69.44
2018-11-23T00:58:48.305Z,69.53
2018-11-23T00:59:49.301Z,69.25
2018-11-23T01:00:51.805Z,68.77
2018-11-23T01:01:47.009Z,68.40
2018-11-23T01:02:47.255Z,67.74
2018-11-23T01:03:47.332Z,67.45
2018-11-23T01:04:48.273Z,67.93
2018-11-23T01:05:49.343Z,67.55
2018-11-23T01:06:47.928Z,67.26
2018-11-23T01:07:49.818Z,67.45
2018-11-23T01:08:51.756Z,67.07
2018-11-23T01:09:48.493Z,66.98
2018-11-23T01:10:49.298Z,66.88
2018-11-23T01:11:50.306Z,66.06
2018-11-23T01:12:53.765Z,66.22
2018-11-23T01:13:50.800Z,66.31
2018-11-23T01:14:49.256Z,66.41
2018-11-23T01:15:52.257Z,66.22
2018-11-23T01:16:51.605Z,65.75
2018-11-23T01:17:51.757Z,66.03
2018-11-23T01:18:50.775Z,65.37
2018-11-23T01:19:53.808Z,65.18
2018-11-23T01:20:52.255Z,64.90
2018-11-23T01:21:52.356Z,64.80
2018-11-23T01:22:52.269Z,65.09
2018-11-23T01:23:54.305Z,64.99
2018-11-23T01:24:52.298Z,65.09
2018-11-23T01:25:51.043Z,64.52
2018-11-23T01:26:53.762Z,64.61
2018-11-23T01:28:12.340Z,63.85
2018-11-23T01:28:59.313Z,64.04
2018-11-23T01:29:58.365Z,63.85
2018-11-23T01:30:53.802Z,63.76
2018-11-23T01:31:53.755Z,63.29
2018-11-23T01:32:53.817Z,63.57
2018-11-23T01:34:00.305Z,62.63
2018-11-23T01:34:54.328Z,63.01
2018-11-23T01:35:52.666Z,62.53
2018-11-23T01:36:54.835Z,63.01
2018-11-23T01:37:55.766Z,62.25
2018-11-23T01:38:55.778Z,62.25
2018-11-23T01:39:57.840Z,61.49
2018-11-23T01:40:56.758Z,61.49
2018-11-23T01:42:16.347Z,61.96
2018-11-23T01:42:53.959Z,61.68
2018-11-23T01:43:58.801Z,61.21
2018-11-23T01:44:56.804Z,61.21
2018-11-23T01:45:55.264Z,61.02
2018-11-23T01:46:55.249Z,61.21
2018-11-23T01:48:19.811Z,60.74
2018-11-23T01:48:58.851Z,60.74
2018-11-23T01:49:58.804Z,60.55
2018-11-23T01:51:10.800Z,60.45
2018-11-23T01:51:55.371Z,60.45
2018-11-23T01:52:59.304Z,60.36
2018-11-23T01:54:00.314Z,60.36
2018-11-23T01:54:56.409Z,59.50
2018-11-23T01:55:58.283Z,59.79
2018-11-23T01:56:59.810Z,59.69
2018-11-23T01:58:00.306Z,59.22
2018-11-23T01:58:59.297Z,59.12
2018-11-23T01:59:59.348Z,59.12
2018-11-23T02:00:56.887Z,58.84
2018-11-23T02:01:57.116Z,59.12
2018-11-23T02:02:57.306Z,58.47
2018-11-23T02:03:59.760Z,58.75
2018-11-23T02:04:59.554Z,58.47
2018-11-23T02:06:04.810Z,57.99
2018-11-23T02:06:59.137Z,58.09
2018-11-23T02:07:58.367Z,58.18
2018-11-23T02:09:09.315Z,58.18
2018-11-23T02:10:03.068Z,57.52
2018-11-23T02:11:00.008Z,57.61
2018-11-23T02:12:00.869Z,57.04
2018-11-23T02:13:06.825Z,57.04
2018-11-23T02:14:01.307Z,57.14
2018-11-23T02:15:01.670Z,56.67
2018-11-23T02:16:02.768Z,57.04
2018-11-23T02:17:01.826Z,56.85
2018-11-23T02:18:01.164Z,56.76
2018-11-23T02:19:02.333Z,56.38
2018-11-23T02:20:00.500Z,56.67
2018-11-23T02:21:01.712Z,56.20
2018-11-23T02:22:22.186Z,55.91
2018-11-23T02:23:02.979Z,56.01
2018-11-23T02:24:02.450Z,55.72
2018-11-23T02:25:05.502Z,55.15
2018-11-23T02:26:08.572Z,55.34
2018-11-23T02:27:03.860Z,55.25
2018-11-23T02:28:06.858Z,54.96
2018-11-23T02:29:06.585Z,54.96
2018-11-23T02:30:02.644Z,54.58
2018-11-23T02:31:03.415Z,54.30
2018-11-23T02:32:18.568Z,54.58
2018-11-23T02:33:05.249Z,54.11
2018-11-23T02:34:04.713Z,54.21
2018-11-23T02:35:03.116Z,54.21
2018-11-23T02:36:05.364Z,54.11
2018-11-23T02:37:03.526Z,54.02
2018-11-23T02:38:05.722Z,53.74
2018-11-23T02:39:06.729Z,53.83
2018-11-23T02:40:06.765Z,53.74
2018-11-23T02:41:21.256Z,53.83
2018-11-23T02:42:07.278Z,53.83
2018-11-23T02:43:06.309Z,53.36
2018-11-23T02:44:26.762Z,53.26
2018-11-23T02:45:06.812Z,53.26
2018-11-23T02:46:05.194Z,52.98
2018-11-23T02:47:07.308Z,52.88
2018-11-23T02:48:08.334Z,52.98
2018-11-23T02:49:05.671Z,53.36
2018-11-23T02:50:28.807Z,52.88
2018-11-23T02:51:30.848Z,52.60
2018-11-23T02:52:06.120Z,51.93
2018-11-23T02:53:08.306Z,52.31
2018-11-23T02:54:08.304Z,52.31
2018-11-23T02:55:10.287Z,51.93
2018-11-23T02:56:10.295Z,52.03
2018-11-23T02:57:13.799Z,51.84
2018-11-23T02:58:07.193Z,51.75
2018-11-23T02:59:07.551Z,51.93
2018-11-23T03:00:23.306Z,51.56
2018-11-23T03:01:16.840Z,51.65
2018-11-23T03:02:10.287Z,51.09
2018-11-23T03:03:07.880Z,51.46
2018-11-23T03:04:09.846Z,50.80
2018-11-23T03:05:16.819Z,50.42
2018-11-23T03:06:10.308Z,50.80
2018-11-23T03:07:10.345Z,50.90
2018-11-23T03:08:10.314Z,50.14
2018-11-23T03:09:15.803Z,50.33
2018-11-23T03:10:11.577Z,50.23
2018-11-23T03:11:09.352Z,50.42
2018-11-23T03:12:27.272Z,50.23
2018-11-23T03:13:09.716Z,49.38
2018-11-23T03:14:11.307Z,49.57
2018-11-23T03:15:11.757Z,49.76
2018-11-23T03:16:10.785Z,49.85
2018-11-23T03:17:12.321Z,49.57
2018-11-23T03:18:12.335Z,49.66
2018-11-23T03:19:18.302Z,49.10
2018-11-23T03:20:12.271Z,48.82
2018-11-23T03:21:12.811Z,49.01
2018-11-23T03:22:12.340Z,48.72
2018-11-23T03:23:17.784Z,48.63
2018-11-23T03:24:14.357Z,48.91
2018-11-23T03:25:13.013Z,48.53
2018-11-23T03:26:12.755Z,48.72
2018-11-23T03:28:49.463Z,48.25
2018-11-23T03:29:46.922Z,47.96
2018-11-23T03:30:44.383Z,47.87
2018-11-23T03:31:48.478Z,47.96
2018-11-23T03:32:45.429Z,48.25
2018-11-23T03:34:05.881Z,47.58
2018-11-23T03:34:46.999Z,47.58
2018-11-23T03:35:47.182Z,47.39
2018-11-23T03:37:08.939Z,47.30
2018-11-23T03:37:49.513Z,47.02
2018-11-23T03:38:45.843Z,46.92
2018-11-23T03:39:50.928Z,46.73
2018-11-23T03:40:49.428Z,46.83
2018-11-23T03:42:01.980Z,46.64
2018-11-23T03:42:46.929Z,46.64
2018-11-23T03:43:49.435Z,46.90
2018-11-23T03:44:48.478Z,46.73
2018-11-23T03:45:47.662Z,46.64
2018-11-23T03:46:48.977Z,46.23
2018-11-23T03:47:50.976Z,46.17
2018-11-23T03:48:55.949Z,46.17
2018-11-23T03:49:48.977Z,45.79
2018-11-23T03:50:51.937Z,45.50
2018-11-23T03:52:10.479Z,45.79
2018-11-23T03:52:56.313Z,46.07
2018-11-23T03:53:49.976Z,45.41
2018-11-23T03:54:51.930Z,45.50
2018-11-23T03:55:51.112Z,45.41
2018-11-23T03:56:55.481Z,44.93
2018-11-23T03:57:56.492Z,44.93
2018-11-23T03:58:54.429Z,45.12
2018-11-23T03:59:50.999Z,45.22
2018-11-23T04:01:05.941Z,45.03
2018-11-23T04:01:50.922Z,44.84
2018-11-23T04:02:49.541Z,44.74
2018-11-23T04:04:11.476Z,44.84
2018-11-23T04:04:51.928Z,44.63
2018-11-23T04:05:54.960Z,44.44
2018-11-23T04:07:00.986Z,44.25
2018-11-23T04:07:57.978Z,44.34
2018-11-23T04:08:52.438Z,44.06
2018-11-23T04:09:52.515Z,44.15
2018-11-23T04:10:50.909Z,44.06
2018-11-23T04:11:55.007Z,44.15
2018-11-23T04:13:14.988Z,44.06
2018-11-23T04:13:55.640Z,44.06
2018-11-23T04:14:51.656Z,43.96
2018-11-23T04:17:30.501Z,43.68
2018-11-23T04:18:25.372Z,43.96
2018-11-23T04:19:24.836Z,43.59
2018-11-23T04:20:27.021Z,43.12
2018-11-23T04:21:25.875Z,43.21
2018-11-23T04:22:27.871Z,43.12
2018-11-23T04:23:26.908Z,43.12
2018-11-23T04:24:29.406Z,43.12
2018-11-23T04:25:29.305Z,42.64
2018-11-23T04:26:29.414Z,43.02
2018-11-23T04:27:29.361Z,42.08
2018-11-23T04:28:29.392Z,42.08
2018-11-23T04:29:42.888Z,42.17
2018-11-23T04:30:28.860Z,42.17
2018-11-23T04:31:29.408Z,42.36
2018-11-23T04:32:30.453Z,42.27
2018-11-23T04:33:27.868Z,42.36
2018-11-23T04:34:30.912Z,42.64
2018-11-23T04:35:31.525Z,42.83
2018-11-23T04:36:30.362Z,41.98
2018-11-23T04:37:29.184Z,42.17
2018-11-23T04:38:34.420Z,42.08
2018-11-23T04:39:30.222Z,41.79
2018-11-23T04:40:31.379Z,41.89
2018-11-23T04:41:28.127Z,41.89
2018-11-23T04:42:29.280Z,41.79
2018-11-23T04:43:31.068Z,41.89
2018-11-23T04:44:28.750Z,41.89
2018-11-23T04:45:34.872Z,41.98
2018-11-23T04:46:35.964Z,41.98
2018-11-23T04:47:29.875Z,42.08
2018-11-23T04:48:36.409Z,41.51
2018-11-23T04:49:53.371Z,41.51
2018-11-23T04:50:30.822Z,40.94
2018-11-23T04:51:30.045Z,41.22
2018-11-23T04:52:32.948Z,41.03
2018-11-23T04:53:33.912Z,41.13
2018-11-23T04:54:30.612Z,41.32
2018-11-23T04:55:33.358Z,41.03
2018-11-23T04:56:32.906Z,40.94
2018-11-23T04:57:33.214Z,41.22
2018-11-23T04:58:34.927Z,41.32
2018-11-23T04:59:35.482Z,41.22
2018-11-23T05:00:33.446Z,41.32
2018-11-23T05:01:33.404Z,41.03
2018-11-23T05:02:31.962Z,40.94
2018-11-23T05:03:33.129Z,40.94
2018-11-23T05:04:32.396Z,40.94
2018-11-23T05:05:37.775Z,40.75
2018-11-23T05:06:33.747Z,40.75
2018-11-23T05:07:37.363Z,40.66
2018-11-23T05:08:35.134Z,40.75
2018-11-23T05:10:00.861Z,40.75
2018-11-23T05:10:33.378Z,40.56
2018-11-23T05:11:36.360Z,40.37
2018-11-23T05:12:35.383Z,40.19
2018-11-23T05:13:35.988Z,40.37
2018-11-23T05:14:57.866Z,40.75
2018-11-23T05:15:35.909Z,40.47
2018-11-23T05:16:36.363Z,40.28
2018-11-23T05:17:41.874Z,40.28
2018-11-23T05:18:36.535Z,40.09
2018-11-23T05:19:38.922Z,40.19
2018-11-23T05:20:38.367Z,39.90
2018-11-23T05:21:36.210Z,39.90
2018-11-23T05:22:36.409Z,40.00
2018-11-23T05:23:41.593Z,39.90
2018-11-23T05:24:51.405Z,39.43
2018-11-23T05:25:37.862Z,39.43
2018-11-23T05:26:42.142Z,39.81
2018-11-23T05:27:42.865Z,39.81
2018-11-23T05:28:39.870Z,39.90
2018-11-23T05:29:46.135Z,39.90
2018-11-23T05:30:38.975Z,39.62
2018-11-23T05:31:54.365Z,39.71
2018-11-23T05:32:38.579Z,39.81
2018-11-23T05:33:40.354Z,39.81
2018-11-23T05:34:51.397Z,39.81
2018-11-23T05:35:37.621Z,39.71
2018-11-23T05:36:40.360Z,39.62
2018-11-23T05:37:38.962Z,39.33
2018-11-23T05:39:03.866Z,39.43
2018-11-23T05:39:38.310Z,39.43
2018-11-23T05:40:50.403Z,39.71
2018-11-23T05:41:42.839Z,39.71
2018-11-23T05:43:08.379Z,39.62
2018-11-23T05:43:42.907Z,39.43
2018-11-23T05:44:41.857Z,39.71
2018-11-23T05:46:10.363Z,39.43
2018-11-23T05:46:42.410Z,39.43
2018-11-23T05:47:41.359Z,39.33
2018-11-23T05:48:40.011Z,38.95
2018-11-23T05:49:43.861Z,38.95
2018-11-23T05:50:47.858Z,38.57
2018-11-23T05:51:47.418Z,38.57
2018-11-23T05:52:43.869Z,38.57
2018-11-23T05:54:10.381Z,38.57
2018-11-23T05:54:43.406Z,38.48
2018-11-23T05:55:44.905Z,38.48
2018-11-23T05:57:05.915Z,38.48
2018-11-23T05:57:42.908Z,38.39
2018-11-23T05:58:42.908Z,38.39
2018-11-23T05:59:42.510Z,38.20
2018-11-23T06:00:45.403Z,38.39
2018-11-23T06:01:41.736Z,38.29
2018-11-23T06:02:44.904Z,38.29
2018-11-23T06:03:44.108Z,38.39
2018-11-23T06:04:42.591Z,38.29
2018-11-23T06:05:43.360Z,38.39
2018-11-23T06:08:19.177Z,37.82
2018-11-23T06:09:15.419Z,37.73
2018-11-23T06:10:18.165Z,37.82
2018-11-23T06:11:24.700Z,37.92
2018-11-23T06:12:17.046Z,37.82
2018-11-23T06:13:22.790Z,38.01
2018-11-23T06:14:24.212Z,38.10
2018-11-23T06:15:20.191Z,37.92
2018-11-23T06:16:21.477Z,37.92
2018-11-23T06:17:19.699Z,37.63
2018-11-23T06:18:18.889Z,37.92
2018-11-23T06:19:17.123Z,37.82
2018-11-23T06:20:18.714Z,37.92
2018-11-23T06:21:19.361Z,37.82
2018-11-23T06:22:26.644Z,37.73
2018-11-23T06:23:21.687Z,37.82
2018-11-23T06:24:20.650Z,38.01
2018-11-23T06:25:23.075Z,38.01
2018-11-23T06:26:20.247Z,37.82
2018-11-23T06:27:23.276Z,38.01
2018-11-23T06:28:19.683Z,37.92
2018-11-23T06:29:21.189Z,37.82
2018-11-23T06:30:21.673Z,37.63
2018-11-23T06:31:23.649Z,37.82
2018-11-23T06:32:23.642Z,37.73
2018-11-23T06:33:22.631Z,37.73
2018-11-23T06:34:21.204Z,37.35
2018-11-23T06:35:36.638Z,37.35
2018-11-23T06:36:24.144Z,37.73
2018-11-23T06:37:23.688Z,37.63
2018-11-23T06:38:35.697Z,37.63
2018-11-23T06:39:20.649Z,37.82
2018-11-23T06:40:21.794Z,37.44
2018-11-23T06:41:25.133Z,37.44
2018-11-23T06:42:20.536Z,37.35
2018-11-23T06:43:22.189Z,37.63
2018-11-23T06:45:54.372Z,37.63
2018-11-23T06:46:55.319Z,37.63
2018-11-23T06:47:56.953Z,37.63
2018-11-23T06:48:55.317Z,37.54
2018-11-23T06:49:54.336Z,37.73
2018-11-23T06:50:57.826Z,37.73
2018-11-23T06:51:56.381Z,37.63
2018-11-23T06:52:56.652Z,37.63
2018-11-23T06:53:56.892Z,37.73
2018-11-23T06:55:00.042Z,37.63
2018-11-23T06:55:59.816Z,38.01
2018-11-23T06:56:56.059Z,38.29
2018-11-23T06:58:11.359Z,38.10
2018-11-23T06:58:58.365Z,38.20
2018-11-23T06:59:56.415Z,38.01
2018-11-23T07:00:58.862Z,37.92
2018-11-23T07:01:56.931Z,37.82
2018-11-23T07:02:59.351Z,38.01
2018-11-23T07:04:00.103Z,38.39
2018-11-23T07:05:19.362Z,38.10
2018-11-23T07:05:58.326Z,37.82
2018-11-23T07:07:01.881Z,37.73
2018-11-23T07:07:58.594Z,37.92
2018-11-23T07:09:25.825Z,37.73
2018-11-23T07:09:59.812Z,37.63
2018-11-23T07:10:58.717Z,37.82
2018-11-23T07:12:04.379Z,38.39
2018-11-23T07:13:04.773Z,38.86
2018-11-23T07:14:03.922Z,39.14
2018-11-23T07:15:02.023Z,38.76
2018-11-23T07:15:58.866Z,39.05
2018-11-23T07:17:01.472Z,39.05
2018-11-23T07:17:57.575Z,39.05
2018-11-23T07:18:59.340Z,38.95
2018-11-23T07:20:00.874Z,39.71
2018-11-23T07:21:00.529Z,39.71
2018-11-23T07:21:58.385Z,40.28
2018-11-23T07:23:20.818Z,40.37
2018-11-23T07:24:02.331Z,40.47
2018-11-23T07:25:02.360Z,40.47
2018-11-23T07:26:02.858Z,40.19
2018-11-23T07:27:00.885Z,39.90
2018-11-23T07:28:15.069Z,39.62
2018-11-23T07:31:02.082Z,39.62
2018-11-23T07:31:48.031Z,38.95
2018-11-23T07:32:34.135Z,38.76
2018-11-23T07:33:34.651Z,38.86
2018-11-23T07:34:32.571Z,38.76
2018-11-23T07:35:32.770Z,38.67
2018-11-23T07:36:40.531Z,38.57
2018-11-23T07:37:35.459Z,38.95
2018-11-23T07:38:33.322Z,38.76
2018-11-23T07:39:36.525Z,38.48
2018-11-23T07:40:49.536Z,38.39
2018-11-23T07:41:33.734Z,38.10
2018-11-23T07:42:37.525Z,37.82
2018-11-23T07:43:53.034Z,37.82
2018-11-23T07:44:36.240Z,37.63
2018-11-23T07:45:34.492Z,37.54
2018-11-23T07:46:37.521Z,38.01
2018-11-23T07:47:38.533Z,37.92
2018-11-23T07:48:41.536Z,38.20
2018-11-23T07:49:36.997Z,38.67
2018-11-23T07:50:35.309Z,38.86
2018-11-23T07:51:39.289Z,38.95
2018-11-23T07:52:40.374Z,38.86
2018-11-23T07:53:47.755Z,40.00
2018-11-23T07:54:38.489Z,39.81
2018-11-23T07:55:35.967Z,39.71
2018-11-23T07:56:43.032Z,40.19
2018-11-23T07:57:38.027Z,39.90
2018-11-23T07:58:36.492Z,40.28
2018-11-23T07:59:36.694Z,40.47
2018-11-23T08:00:36.880Z,40.28
2018-11-23T08:01:41.025Z,40.47
2018-11-23T08:02:37.217Z,40.19
2018-11-23T08:03:44.040Z,40.19
2018-11-23T08:04:44.534Z,40.28
2018-11-23T08:05:37.720Z,40.28
2018-11-23T08:06:39.005Z,40.47
2018-11-23T08:07:40.070Z,40.28
2018-11-23T08:08:38.320Z,39.90
2018-11-23T08:09:40.030Z,39.62
2018-11-23T08:10:43.493Z,39.62
2018-11-23T08:11:40.534Z,39.33
2018-11-23T08:12:41.489Z,39.52
2018-11-23T08:13:40.353Z,39.33
2018-11-23T08:14:40.982Z,39.52
2018-11-23T08:15:42.501Z,39.33
2018-11-23T08:16:39.747Z,39.33
2018-11-23T08:17:43.006Z,38.76
2018-11-23T08:18:41.117Z,39.05
2018-11-23T08:19:47.473Z,39.05
2018-11-23T08:20:42.030Z,39.62
2018-11-23T08:21:40.578Z,40.19
2018-11-23T08:22:43.249Z,40.28
2018-11-23T08:23:43.589Z,40.66
2018-11-23T08:24:41.069Z,40.75
2018-11-23T08:25:49.025Z,40.66
2018-11-23T08:26:41.488Z,41.03
2018-11-23T08:27:41.692Z,41.13
2018-11-23T08:28:45.527Z,41.22
2018-11-23T08:29:42.096Z,41.13
2018-11-23T08:30:46.049Z,41.70
2018-11-23T08:31:46.025Z,41.70
2018-11-23T08:32:44.544Z,42.55
2018-11-23T08:33:42.773Z,42.93
2018-11-23T08:34:44.567Z,42.27
2018-11-23T08:35:45.027Z,42.55
2018-11-23T08:36:43.351Z,42.45
2018-11-23T08:37:45.540Z,41.79
2018-11-23T08:38:47.528Z,41.70
2018-11-23T08:39:46.487Z,42.74
2018-11-23T08:41:09.061Z,42.27
2018-11-23T08:41:46.042Z,42.08
2018-11-23T08:43:05.525Z,41.79
2018-11-23T08:43:45.539Z,41.79
2018-11-23T08:44:46.527Z,40.94
2018-11-23T08:46:00.527Z,41.51
2018-11-23T08:46:45.093Z,41.51
2018-11-23T08:47:47.989Z,41.79
2018-11-23T08:48:52.332Z,41.03
2018-11-23T08:49:49.535Z,41.32
2018-11-23T08:50:48.009Z,40.56
2018-11-23T08:51:46.854Z,40.75
2018-11-23T08:52:48.034Z,40.47
2018-11-23T08:53:50.473Z,39.90
2018-11-23T08:54:50.051Z,39.33
2018-11-23T08:55:47.493Z,40.19
2018-11-23T08:56:47.836Z,40.09
2018-11-23T08:57:49.026Z,40.19
2018-11-23T08:58:49.030Z,39.52
2018-11-23T08:59:49.044Z,39.33
2018-11-23T09:00:49.028Z,38.76
2018-11-23T09:02:11.493Z,38.86
2018-11-23T09:02:49.527Z,39.05
2018-11-23T09:03:47.982Z,38.76
2018-11-23T09:04:48.190Z,38.95
2018-11-23T09:07:25.003Z,39.71
2018-11-23T09:08:22.671Z,39.90
2018-11-23T09:09:24.529Z,38.95
2018-11-23T09:10:24.532Z,39.33
2018-11-23T09:11:23.477Z,39.33
2018-11-23T09:12:49.027Z,39.33
2018-11-23T09:13:23.836Z,38.67
2018-11-23T09:14:23.738Z,38.76
2018-11-23T09:15:37.519Z,38.76
2018-11-23T09:16:21.724Z,38.95
2018-11-23T09:17:21.923Z,38.10
2018-11-23T09:18:25.475Z,38.03
2018-11-23T09:19:22.323Z,38.41
2018-11-23T09:20:46.019Z,38.79
2018-11-23T09:21:23.971Z,39.36
2018-11-23T09:22:24.515Z,40.00
2018-11-23T09:23:24.525Z,41.13
2018-11-23T09:24:27.041Z,41.32
2018-11-23T09:25:26.276Z,41.60
2018-11-23T09:26:23.431Z,41.70
2018-11-23T09:27:27.720Z,40.87
2018-11-23T09:28:23.872Z,41.06
2018-11-23T09:29:46.884Z,40.68
2018-11-23T09:30:26.473Z,41.06
2018-11-23T09:31:47.104Z,40.96
2018-11-23T09:32:24.893Z,40.49
2018-11-23T09:33:28.521Z,41.15
2018-11-23T09:34:26.233Z,41.72
2018-11-23T09:35:26.038Z,41.06
2018-11-23T09:36:25.098Z,41.72
2018-11-23T09:37:29.223Z,42.47
2018-11-23T09:38:29.070Z,43.71
2018-11-23T09:39:29.024Z,44.56
2018-11-23T09:40:27.530Z,44.93
2018-11-23T09:41:28.510Z,45.12
2018-11-23T09:42:27.519Z,45.22
2018-11-23T09:43:30.087Z,44.84
2018-11-23T09:44:29.010Z,46.36
2018-11-23T09:45:35.491Z,45.98
2018-11-23T09:46:34.515Z,47.77
2018-11-23T09:47:29.089Z,49.48
2018-11-23T09:48:27.200Z,49.95
2018-11-23T09:49:35.049Z,49.95
2018-11-23T09:50:27.880Z,50.14
2018-11-23T09:51:27.752Z,50.42
2018-11-23T09:52:27.775Z,49.57
2018-11-23T09:53:28.992Z,50.04
2018-11-23T09:54:30.857Z,49.48
2018-11-23T09:55:31.480Z,50.80
2018-11-23T09:56:30.020Z,50.42
2018-11-23T09:57:29.491Z,50.82
2018-11-23T09:58:33.055Z,52.69
2018-11-23T09:59:31.968Z,53.19
2018-11-23T10:00:32.473Z,54.80
2018-11-23T10:01:34.015Z,56.98
2018-11-23T10:02:29.986Z,58.78
2018-11-23T10:03:30.858Z,58.78
2018-11-23T10:04:30.713Z,57.64
2018-11-23T10:06:46.117Z,59.06
2018-11-23T10:07:32.021Z,59.81
2018-11-23T10:08:33.504Z,60.45
2018-11-23T10:09:33.496Z,58.78
2018-11-23T10:10:35.188Z,58.02
2018-11-23T10:11:34.584Z,58.02
2018-11-23T10:12:47.972Z,57.35
2018-11-23T10:13:36.472Z,60.19
2018-11-23T10:14:38.084Z,58.30
2018-11-23T10:15:34.018Z,61.43
2018-11-23T10:16:37.472Z,65.12
2018-11-23T10:17:32.477Z,66.16
2018-11-23T10:18:33.815Z,63.60
2018-11-23T10:19:36.026Z,64.45
2018-11-23T10:20:36.021Z,62.66
2018-11-23T10:21:37.469Z,62.28
2018-11-23T10:22:35.490Z,61.05
2018-11-23T10:23:33.844Z,59.91
2018-11-23T10:24:33.505Z,59.44
2018-11-23T10:25:36.977Z,58.30
2018-11-23T10:26:41.037Z,59.06
2018-11-23T10:27:35.350Z,60.77
2018-11-23T10:28:35.520Z,60.67
2018-11-23T10:29:38.974Z,61.71
2018-11-23T10:30:38.194Z,62.56
2018-11-23T10:31:36.031Z,64.26
2018-11-23T10:32:38.054Z,63.70
2018-11-23T10:33:36.519Z,63.89
2018-11-23T10:34:36.582Z,63.60
2018-11-23T10:35:36.504Z,63.79
2018-11-23T10:36:35.128Z,66.06
2018-11-23T10:37:37.027Z,67.58
2018-11-23T10:38:36.488Z,68.81
2018-11-23T10:39:35.572Z,69.00
2018-11-23T10:40:35.804Z,69.19
2018-11-23T10:41:43.520Z,67.39
2018-11-23T10:42:39.971Z,66.82
2018-11-23T10:43:44.010Z,66.63
2018-11-23T10:44:38.547Z,66.06
2018-11-23T10:45:41.666Z,65.31
2018-11-23T10:46:40.529Z,66.35
2018-11-23T10:47:37.115Z,66.63
2018-11-23T10:48:37.322Z,68.43
2018-11-23T10:49:45.015Z,68.05
2018-11-23T10:50:37.725Z,66.19
2018-11-23T10:51:38.543Z,68.43
2018-11-23T10:52:42.019Z,67.01
2018-11-23T10:53:40.031Z,68.71
2018-11-23T10:54:41.477Z,69.09
2018-11-23T10:55:41.514Z,68.15
2018-11-23T10:56:40.526Z,65.02
2018-11-23T10:57:42.516Z,62.94
2018-11-23T10:58:40.642Z,61.71
2018-11-23T10:59:41.160Z,62.37
2018-11-23T11:00:41.371Z,62.47
2018-11-23T11:01:41.542Z,62.47
2018-11-23T11:02:43.518Z,62.28
2018-11-23T11:03:41.487Z,62.47
2018-11-23T11:04:46.181Z,62.88
2018-11-23T11:05:40.385Z,63.51
2018-11-23T11:06:41.545Z,63.64
2018-11-23T11:07:43.530Z,63.32
2018-11-23T11:08:41.496Z,61.90
2018-11-23T11:09:40.848Z,61.90
2018-11-23T11:10:50.025Z,61.52
2018-11-23T11:11:42.975Z,59.81
2018-11-23T11:12:45.020Z,60.22
2018-11-23T11:13:41.597Z,60.99
2018-11-23T11:14:41.798Z,65.63
2018-11-23T11:15:45.520Z,69.13
2018-11-23T11:16:46.035Z,67.71
2018-11-23T11:17:46.029Z,69.13
2018-11-23T11:18:45.991Z,73.68
2018-11-23T11:19:46.520Z,75.00
2018-11-23T11:20:46.515Z,77.12
2018-11-23T11:21:43.901Z,79.96
2018-11-23T11:24:17.596Z,80.06
2018-11-23T11:25:17.630Z,82.52
2018-11-23T11:26:16.083Z,81.67
2018-11-23T11:27:18.153Z,81.67
2018-11-23T11:28:16.639Z,82.05
2018-11-23T11:29:23.635Z,82.14
2018-11-23T11:30:15.949Z,84.04
2018-11-23T11:31:16.173Z,86.60
2018-11-23T11:32:18.152Z,84.13
2018-11-23T11:33:18.131Z,85.84
2018-11-23T11:34:18.156Z,83.00
2018-11-23T11:35:18.636Z,82.33
2018-11-23T11:36:18.639Z,86.12
2018-11-23T11:37:18.657Z,86.31
2018-11-23T11:38:21.124Z,87.45
2018-11-23T11:39:18.219Z,88.49
2018-11-23T11:40:19.146Z,88.11
2018-11-23T11:41:19.627Z,88.78
2018-11-23T11:42:20.623Z,86.79
2018-11-23T11:43:17.959Z,86.31
2018-11-23T11:44:20.140Z,87.49
2018-11-23T11:45:20.129Z,87.40
2018-11-23T11:46:18.452Z,92.23
2018-11-23T11:47:20.646Z,94.32
2018-11-23T11:48:20.636Z,99.99
2018-11-23T11:49:20.663Z,99.99
2018-11-23T11:50:19.277Z,96.59
2018-11-23T11:51:21.145Z,99.99
2018-11-23T11:52:19.693Z,99.99
2018-11-23T11:53:19.767Z,99.99
2018-11-23T11:54:21.634Z,99.99
2018-11-23T11:55:21.134Z,99.99
2018-11-23T11:56:23.131Z,99.99
2018-11-23T11:57:20.478Z,99.99
2018-11-23T11:58:20.688Z,99.99
2018-11-23T11:59:22.629Z,99.99
2018-11-23T12:00:21.097Z,99.99
2018-11-23T12:01:21.325Z,99.99
2018-11-23T12:02:21.433Z,99.99
2018-11-23T12:03:21.666Z,99.99
2018-11-23T12:04:23.007Z,99.99
2018-11-23T12:05:22.106Z,99.99
2018-11-23T12:06:22.302Z,99.99
2018-11-23T12:07:22.516Z,99.99
2018-11-23T12:08:22.727Z,99.99
2018-11-23T12:09:22.936Z,99.99
2018-11-23T12:10:23.145Z,99.99
2018-11-23T12:11:25.149Z,99.99
2018-11-23T12:12:23.482Z,99.99
2018-11-23T12:13:23.738Z,99.99
2018-11-23T12:14:23.920Z,99.99
2018-11-23T12:15:24.130Z,99.99
2018-11-23T12:16:26.174Z,99.99
2018-11-23T12:17:24.789Z,99.99
2018-11-23T12:18:24.668Z,99.99
2018-11-23T12:19:24.762Z,99.99
2018-11-23T12:20:24.967Z,99.99
2018-11-23T12:21:25.184Z,99.99
2018-11-23T12:22:25.394Z,99.99
2018-11-23T12:23:27.129Z,99.99
2018-11-23T12:24:25.719Z,99.99
2018-11-23T12:25:27.626Z,99.99
2018-11-23T12:26:26.126Z,99.99
2018-11-23T12:27:29.459Z,99.99
2018-11-23T12:28:26.473Z,99.99
2018-11-23T12:29:26.691Z,99.99
2018-11-23T12:30:26.908Z,99.99
2018-11-23T12:31:27.130Z,99.49
2018-11-23T12:32:27.344Z,96.55
2018-11-23T12:33:27.555Z,95.41
2018-11-23T12:34:29.641Z,95.31
2018-11-23T12:35:29.628Z,94.04
2018-11-23T12:36:28.085Z,91.47
2018-11-23T12:37:32.163Z,88.82
2018-11-23T12:38:28.503Z,89.48
2018-11-23T12:39:30.634Z,88.92
2018-11-23T12:40:28.844Z,88.35
2018-11-23T12:41:32.623Z,86.16
2018-11-23T12:42:29.216Z,84.17
2018-11-23T12:43:29.424Z,82.56
2018-11-23T12:44:37.124Z,81.99
2018-11-23T12:45:29.829Z,83.61
2018-11-23T12:46:32.649Z,82.56
2018-11-23T12:47:30.231Z,80.67
2018-11-23T12:48:32.124Z,81.14
2018-11-23T12:49:32.128Z,79.06
2018-11-23T12:50:30.758Z,75.55
2018-11-23T12:51:30.967Z,74.79
2018-11-23T12:52:32.083Z,75.17
2018-11-23T12:53:33.172Z,75.93
2018-11-23T12:54:40.080Z,74.88
2018-11-23T12:55:32.706Z,74.88
2018-11-23T12:56:31.807Z,73.65
2018-11-23T12:57:33.643Z,75.26
2018-11-23T12:58:32.459Z,71.38
2018-11-23T12:59:34.170Z,71.09
2018-11-23T13:00:33.505Z,72.33
2018-11-23T13:01:32.722Z,72.33
2018-11-23T13:02:34.675Z,73.56
2018-11-23T13:03:48.633Z,74.32
2018-11-23T13:04:33.262Z,74.22
2018-11-23T13:05:33.418Z,74.13
2018-11-23T13:07:02.135Z,72.61
2018-11-23T13:07:35.646Z,70.90